Terminal Aerodrome Forecast
Issued by NWS

Home | Current Version | Previous Version | Text Only | Print | Product List | Glossary On
Versions: 1 2 3 4 5 6 7 8 9 10 11 12 13 14
000
FTUS44 KCRP 312300
TAFLRD
TAF
KLRD 312337Z 0100/0124 16011KT P6SM -RA FEW022 BKN100
     FM010600 18010KT P6SM FEW008 BKN100
     FM011500 27008KT P6SM BKN150=

USA.gov is the U.S. government's official web portal to all federal, state and local government web resources and services.